Time;durP1;ratioP1;P1;durP2;ratioP2;P2;SDS_P1;SDS_P2;PMS_P1;PMS_P2;Temp;Humidity;BMP_temperature;BMP_pressure;BME280_temperature;BME280_humidity;BME280_pressure;Samples;Min_cycle;Max_cycle;Signal;HPM_P1;HPM_P2
2021/01/25 00:02:02;;;;;;;6.32;3.40;;;2.30;99.90;;;;;;5076087;28;20250;-70
2021/01/25 00:04:29;;;;;;;7.53;3.75;;;2.40;99.90;;;;;;5075985;28;20207;-70
2021/01/25 00:06:56;;;;;;;5.18;3.75;;;2.50;99.90;;;;;;5076411;28;20206;-70
2021/01/25 00:09:22;;;;;;;8.82;4.70;;;2.60;99.90;;;;;;5076172;28;20293;-70
2021/01/25 00:11:48;;;;;;;3.90;3.15;;;2.60;99.90;;;;;;5076001;28;20229;-70
2021/01/25 00:14:15;;;;;;;8.60;3.75;;;2.60;99.90;;;;;;5076098;28;20213;-70
2021/01/25 00:16:41;;;;;;;4.07;3.05;;;2.60;99.90;;;;;;5075739;28;20344;-70
2021/01/25 00:19:07;;;;;;;3.83;2.70;;;2.60;99.90;;;;;;5075539;28;20207;-70
2021/01/25 00:21:34;;;;;;;3.95;2.47;;;2.60;99.90;;;;;;5076025;28;20310;-70
2021/01/25 00:24:01;;;;;;;3.88;2.40;;;2.60;99.90;;;;;;5075885;28;20202;-71
2021/01/25 00:26:27;;;;;;;5.85;2.00;;;2.60;99.90;;;;;;5075421;28;20596;-72
2021/01/25 00:28:53;;;;;;;4.05;2.55;;;2.60;99.90;;;;;;5075859;28;20723;-70
2021/01/25 00:31:20;;;;;;;4.22;2.88;;;2.70;99.90;;;;;;5075472;28;20222;-70
2021/01/25 00:33:46;;;;;;;3.78;2.47;;;2.80;99.90;;;;;;5075752;28;20556;-70
2021/01/25 00:36:12;;;;;;;4.22;2.60;;;2.80;99.90;;;;;;5075467;28;20298;-70
2021/01/25 00:38:39;;;;;;;7.50;2.85;;;2.70;99.90;;;;;;5075612;28;20293;-70
2021/01/25 00:41:06;;;;;;;3.65;2.63;;;2.60;99.90;;;;;;5075480;28;20313;-69
2021/01/25 00:43:32;;;;;;;2.85;2.58;;;2.60;99.90;;;;;;5075666;28;20638;-70
2021/01/25 00:45:58;;;;;;;4.45;2.55;;;2.60;99.90;;;;;;5075264;28;20297;-69
2021/01/25 00:48:25;;;;;;;4.63;3.05;;;2.50;99.90;;;;;;5075380;28;20229;-70
2021/01/25 00:50:51;;;;;;;2.72;2.03;;;2.50;99.90;;;;;;5075278;28;20921;-70
2021/01/25 00:53:17;;;;;;;4.35;2.75;;;2.50;99.90;;;;;;5075347;28;20627;-70
2021/01/25 00:55:44;;;;;;;3.30;1.83;;;2.50;99.90;;;;;;5074983;28;20290;-70
2021/01/25 00:58:11;;;;;;;2.97;2.38;;;2.40;99.90;;;;;;5075216;28;20293;-70
2021/01/25 01:00:37;;;;;;;4.10;2.60;;;2.50;99.90;;;;;;5074968;28;20293;-70
2021/01/25 01:03:04;;;;;;;5.97;2.58;;;2.50;99.90;;;;;;5075189;28;20285;-70
2021/01/25 01:05:30;;;;;;;3.03;2.60;;;2.50;99.90;;;;;;5074867;28;20290;-70
2021/01/25 01:07:56;;;;;;;3.17;1.90;;;2.60;99.90;;;;;;5074996;28;20203;-70
2021/01/25 01:10:23;;;;;;;3.15;2.00;;;2.70;99.90;;;;;;5075022;28;20564;-70
2021/01/25 01:12:50;;;;;;;4.72;2.35;;;2.70;99.90;;;;;;5074971;28;20347;-70
2021/01/25 01:15:17;;;;;;;2.78;2.17;;;2.60;99.80;;;;;;5074775;28;20289;-70
2021/01/25 01:17:43;;;;;;;2.53;2.33;;;2.70;99.90;;;;;;5074715;28;20259;-70
2021/01/25 01:20:11;;;;;;;3.72;2.17;;;2.70;99.90;;;;;;5074779;28;20199;-70
2021/01/25 01:22:37;;;;;;;4.05;2.30;;;2.80;99.90;;;;;;5074660;28;20219;-70
2021/01/25 01:25:05;;;;;;;5.63;2.67;;;2.80;99.80;;;;;;5074710;28;20209;-70
2021/01/25 01:27:31;;;;;;;3.55;2.65;;;2.90;99.70;;;;;;5074383;28;20218;-70
2021/01/25 01:29:59;;;;;;;7.53;2.75;;;2.90;99.60;;;;;;5073833;28;20202;-70
2021/01/25 01:32:25;;;;;;;2.85;2.42;;;3.00;99.90;;;;;;5074526;28;20582;-70
2021/01/25 01:34:51;;;;;;;2.70;1.90;;;2.90;99.60;;;;;;5074345;28;20294;-69
2021/01/25 01:37:18;;;;;;;4.00;2.33;;;2.90;99.90;;;;;;5074418;28;20209;-70
2021/01/25 01:39:44;;;;;;;2.83;2.28;;;2.90;99.40;;;;;;5074417;28;20235;-69
2021/01/25 01:42:16;;;;;;;2.45;2.25;;;2.90;99.60;;;;;;5074341;28;20309;-70
2021/01/25 01:44:43;;;;;;;5.28;2.47;;;2.90;99.10;;;;;;5074162;28;20187;-69
2021/01/25 01:47:12;;;;;;;1.92;1.83;;;2.90;98.90;;;;;;5073968;28;20195;-70
2021/01/25 01:49:39;;;;;;;3.25;2.40;;;2.90;98.50;;;;;;5074254;28;20202;-70
2021/01/25 01:52:06;;;;;;;4.32;2.75;;;2.70;99.70;;;;;;5074315;28;20222;-70
2021/01/25 01:54:33;;;;;;;4.32;2.30;;;2.70;99.90;;;;;;5075189;28;20205;-70
2021/01/25 01:56:59;;;;;;;4.00;2.92;;;2.40;99.90;;;;;;5075066;28;20307;-70
2021/01/25 01:59:26;;;;;;;3.53;2.22;;;2.20;99.90;;;;;;5075072;28;20202;-70
2021/01/25 02:01:52;;;;;;;1.77;1.52;;;2.30;99.90;;;;;;5075218;28;20222;-70
2021/01/25 02:04:20;;;;;;;3.17;2.45;;;2.30;99.90;;;;;;5074849;28;20207;-70
2021/01/25 02:06:48;;;;;;;4.25;2.28;;;2.40;99.90;;;;;;5074461;28;20298;-70
2021/01/25 02:09:15;;;;;;;3.70;2.00;;;2.40;99.90;;;;;;5073651;28;20198;-70
2021/01/25 02:11:42;;;;;;;2.50;2.10;;;2.50;99.90;;;;;;5073672;28;20223;-70
2021/01/25 02:14:09;;;;;;;5.32;2.50;;;2.50;99.90;;;;;;5073920;28;20288;-70
2021/01/25 02:16:38;;;;;;;2.63;2.25;;;2.50;99.90;;;;;;5073708;28;20248;-70
2021/01/25 02:19:05;;;;;;;4.07;2.30;;;2.60;99.90;;;;;;5073777;28;20210;-70
2021/01/25 02:21:34;;;;;;;3.30;2.40;;;2.60;99.90;;;;;;5073478;28;20769;-70
2021/01/25 02:24:15;;;;;;;2.55;2.30;;;2.70;99.90;;;;;;5073461;28;20301;-70
2021/01/25 02:27:07;;;;;;;3.00;2.33;;;2.70;99.90;;;;;;5073259;28;20680;-70
2021/01/25 02:29:34;;;;;;;2.53;2.33;;;2.80;99.90;;;;;;5073575;28;20202;-70
2021/01/25 02:32:01;;;;;;;2.78;2.17;;;2.80;99.90;;;;;;5073248;28;20233;-70
2021/01/25 02:34:29;;;;;;;2.22;2.03;;;2.80;99.90;;;;;;5073586;28;20207;-70
2021/01/25 02:36:57;;;;;;;2.42;2.17;;;2.90;99.90;;;;;;5073594;28;20199;-69
2021/01/25 02:39:25;;;;;;;3.40;2.40;;;2.90;99.90;;;;;;5074460;28;20267;-70
2021/01/25 02:41:52;;;;;;;2.78;1.77;;;3.00;99.90;;;;;;5073797;28;20310;-70
2021/01/25 02:44:20;;;;;;;2.65;2.00;;;2.90;99.90;;;;;;5073792;28;20205;-70
2021/01/25 02:46:47;;;;;;;3.15;2.08;;;2.90;99.90;;;;;;5073632;28;20580;-70
2021/01/25 02:49:14;;;;;;;2.78;1.92;;;2.90;99.90;;;;;;5074418;28;20293;-70
2021/01/25 02:51:40;;;;;;;3.20;1.98;;;3.00;99.90;;;;;;5074134;28;20229;-69
2021/01/25 02:54:07;;;;;;;2.22;1.73;;;2.90;99.90;;;;;;5073586;28;20289;-70
2021/01/25 02:56:34;;;;;;;2.17;1.98;;;2.90;99.90;;;;;;5073106;28;20202;-70
2021/01/25 02:59:00;;;;;;;2.88;1.80;;;2.80;99.90;;;;;;5073433;28;20232;-70
2021/01/25 03:01:27;;;;;;;5.45;2.42;;;2.80;99.90;;;;;;5072972;28;20309;-70
2021/01/25 03:03:55;;;;;;;3.55;2.35;;;2.90;99.90;;;;;;5073064;28;20723;-70
2021/01/25 03:06:22;;;;;;;2.42;2.08;;;2.80;99.90;;;;;;5073109;28;20673;-72
2021/01/25 03:08:48;;;;;;;2.90;2.25;;;2.80;99.90;;;;;;5073451;28;20652;-70
2021/01/25 03:11:18;;;;;;;3.20;2.22;;;2.80;99.90;;;;;;5073276;28;20584;-70
2021/01/25 03:13:44;;;;;;;2.65;2.20;;;2.90;99.90;;;;;;5072944;28;20226;-70
2021/01/25 03:16:14;;;;;;;2.00;1.80;;;3.10;99.90;;;;;;5072892;28;20259;-70
2021/01/25 03:18:41;;;;;;;3.88;2.10;;;3.20;99.90;;;;;;5073047;28;20676;-70
2021/01/25 03:21:08;;;;;;;1.98;1.58;;;3.30;99.90;;;;;;5073146;28;20738;-70
2021/01/25 03:23:34;;;;;;;2.58;2.35;;;3.30;99.90;;;;;;5072910;28;20656;-70
2021/01/25 03:26:01;;;;;;;3.58;2.10;;;3.30;99.90;;;;;;5072775;28;20214;-70
2021/01/25 03:28:27;;;;;;;3.45;2.50;;;3.20;99.90;;;;;;5073116;28;20688;-70
2021/01/25 03:30:54;;;;;;;4.13;2.60;;;3.00;99.90;;;;;;5072940;28;20306;-70
2021/01/25 03:33:20;;;;;;;3.95;2.45;;;3.00;99.90;;;;;;5072954;28;20231;-70
2021/01/25 03:35:46;;;;;;;2.35;2.05;;;2.80;99.90;;;;;;5072840;28;20209;-70
2021/01/25 03:38:14;;;;;;;6.20;2.33;;;2.60;99.90;;;;;;5072866;28;20293;-69
2021/01/25 03:40:40;;;;;;;2.15;1.95;;;2.40;99.90;;;;;;5072913;28;20672;-69
2021/01/25 03:43:06;;;;;;;2.35;2.03;;;2.20;99.90;;;;;;5072997;28;20195;-70
2021/01/25 03:45:32;;;;;;;2.65;2.45;;;2.00;99.90;;;;;;5072804;28;20227;-70
2021/01/25 03:47:59;;;;;;;4.18;1.80;;;1.90;99.90;;;;;;5072693;28;20285;-70
2021/01/25 03:50:25;;;;;;;5.50;2.53;;;1.80;99.90;;;;;;5072867;28;20240;-70
2021/01/25 03:52:51;;;;;;;5.40;2.80;;;1.80;99.90;;;;;;5073150;28;20700;-69
2021/01/25 03:55:19;;;;;;;3.70;2.55;;;2.00;99.90;;;;;;5076429;28;20203;-70
2021/01/25 03:57:45;;;;;;;5.22;2.72;;;2.10;99.90;;;;;;5076310;28;20241;-72
2021/01/25 04:00:12;;;;;;;3.92;2.13;;;2.30;99.90;;;;;;5076239;28;20203;-72
2021/01/25 04:02:39;;;;;;;5.57;3.22;;;2.40;99.90;;;;;;5076074;28;20267;-72
2021/01/25 04:05:14;;;;;;;3.45;2.80;;;2.50;99.90;;;;;;5076268;28;20206;-70
2021/01/25 04:07:41;;;;;;;5.43;2.85;;;2.70;99.90;;;;;;5075944;28;20234;-70
2021/01/25 04:10:08;;;;;;;4.45;2.83;;;2.70;99.90;;;;;;5076157;28;20213;-70
2021/01/25 04:12:35;;;;;;;3.25;2.35;;;2.80;99.90;;;;;;5075715;28;20230;-70
2021/01/25 04:15:01;;;;;;;5.53;3.13;;;2.90;99.90;;;;;;5075920;28;20753;-70
2021/01/25 04:17:28;;;;;;;6.95;2.95;;;3.00;99.90;;;;;;5075755;28;20264;-70
2021/01/25 04:19:54;;;;;;;5.63;2.97;;;3.10;99.90;;;;;;5075943;28;20209;-70
2021/01/25 04:22:20;;;;;;;4.65;2.90;;;3.20;99.90;;;;;;5075574;28;20282;-70
2021/01/25 04:24:47;;;;;;;3.15;2.75;;;3.20;99.90;;;;;;5075885;28;20203;-70
2021/01/25 04:27:13;;;;;;;7.55;3.03;;;3.20;99.90;;;;;;5075267;28;20731;-70
2021/01/25 04:29:41;;;;;;;4.18;2.95;;;3.20;99.90;;;;;;5075841;28;20212;-70
2021/01/25 04:32:07;;;;;;;5.60;3.17;;;3.20;99.90;;;;;;5075315;28;20227;-70
2021/01/25 04:34:34;;;;;;;4.63;3.58;;;3.10;99.90;;;;;;5075721;28;20290;-70
2021/01/25 04:37:00;;;;;;;8.10;3.20;;;3.10;99.90;;;;;;5075351;28;20290;-70
2021/01/25 04:39:26;;;;;;;6.63;3.65;;;3.10;99.90;;;;;;5075676;28;20293;-69
2021/01/25 04:41:53;;;;;;;4.93;2.63;;;3.10;99.90;;;;;;5075621;28;20645;-70
2021/01/25 04:44:22;;;;;;;6.78;3.55;;;3.10;99.90;;;;;;5075683;28;20207;-70
2021/01/25 04:46:50;;;;;;;6.15;3.42;;;3.10;99.90;;;;;;5075455;28;20202;-69
2021/01/25 04:49:18;;;;;;;5.72;3.17;;;3.00;99.90;;;;;;5075395;28;20198;-69
2021/01/25 04:51:45;;;;;;;4.30;2.97;;;3.00;99.90;;;;;;5075185;28;20222;-69
2021/01/25 04:54:13;;;;;;;6.35;4.35;;;3.00;99.90;;;;;;5075052;28;20203;-70
2021/01/25 04:56:41;;;;;;;5.90;3.38;;;2.90;99.90;;;;;;5074858;28;20217;-70
2021/01/25 04:59:08;;;;;;;7.93;4.15;;;2.90;99.90;;;;;;5075042;28;20207;-70
2021/01/25 05:01:34;;;;;;;2.95;2.65;;;2.90;99.90;;;;;;5074859;28;20250;-69
2021/01/25 05:04:01;;;;;;;8.20;4.25;;;2.90;99.90;;;;;;5074701;28;20293;-70
2021/01/25 05:06:27;;;;;;;8.00;3.63;;;2.80;99.90;;;;;;5074526;28;20207;-69
2021/01/25 05:08:54;;;;;;;6.97;3.85;;;2.80;99.90;;;;;;5075209;28;20233;-70
2021/01/25 05:11:20;;;;;;;6.72;3.47;;;2.60;99.90;;;;;;5075185;28;20333;-70
2021/01/25 05:13:47;;;;;;;8.27;4.10;;;2.60;99.90;;;;;;5075359;28;20233;-70
2021/01/25 05:16:18;;;;;;;7.32;3.70;;;2.50;99.90;;;;;;5075289;28;20209;-70
2021/01/25 05:18:45;;;;;;;7.88;3.33;;;2.50;99.90;;;;;;5075671;28;20611;-70
2021/01/25 05:21:13;;;;;;;5.82;4.28;;;2.50;99.90;;;;;;5075156;28;20226;-70
2021/01/25 05:23:40;;;;;;;6.63;4.07;;;2.50;99.90;;;;;;5075079;28;20337;-69
2021/01/25 05:26:08;;;;;;;5.97;4.30;;;2.60;99.90;;;;;;5074187;28;20214;-70
2021/01/25 05:28:41;;;;;;;7.20;4.45;;;2.40;99.90;;;;;;5074634;28;20203;-69
2021/01/25 05:31:21;;;;;;;6.80;3.75;;;2.30;99.90;;;;;;5074323;28;20229;-69
2021/01/25 05:33:48;;;;;;;7.05;3.92;;;2.10;99.90;;;;;;5074430;28;20237;-69
2021/01/25 05:36:20;;;;;;;5.70;3.38;;;2.00;99.90;;;;;;5074327;28;20198;-69
2021/01/25 05:38:48;;;;;;;7.50;3.70;;;1.90;99.90;;;;;;5074322;28;20302;-69
2021/01/25 05:41:16;;;;;;;8.27;3.42;;;1.80;99.90;;;;;;5074213;28;20225;-69
2021/01/25 05:43:43;;;;;;;8.65;3.92;;;1.70;99.90;;;;;;5074402;28;20570;-69
2021/01/25 05:46:10;;;;;;;6.85;3.72;;;1.70;99.90;;;;;;5073939;28;20225;-70
2021/01/25 05:48:37;;;;;;;10.73;4.45;;;1.80;99.90;;;;;;5074219;28;20247;-69
2021/01/25 05:51:14;;;;;;;6.53;3.58;;;1.80;99.90;;;;;;5074143;28;20265;-69
2021/01/25 05:53:43;;;;;;;4.82;3.78;;;1.80;99.90;;;;;;5074340;28;20207;-70
2021/01/25 05:56:10;;;;;;;3.88;2.75;;;1.80;99.90;;;;;;5075358;28;20225;-70
2021/01/25 05:58:37;;;;;;;4.72;2.78;;;1.90;99.90;;;;;;5075474;28;20202;-70
2021/01/25 06:01:04;;;;;;;5.25;3.60;;;1.90;99.90;;;;;;5075178;28;20580;-70
2021/01/25 06:03:36;;;;;;;7.15;4.38;;;1.80;99.90;;;;;;5074722;28;20297;-70
2021/01/25 06:06:13;;;;;;;4.63;3.15;;;1.80;99.90;;;;;;5074578;28;20257;-70
2021/01/25 06:08:51;;;;;;;5.55;3.67;;;1.80;99.90;;;;;;5074475;28;20277;-70
2021/01/25 06:11:20;;;;;;;5.00;3.42;;;1.80;99.90;;;;;;5073830;28;20325;-71
2021/01/25 06:13:53;;;;;;;4.35;3.30;;;1.70;99.90;;;;;;5073911;28;20222;-72
2021/01/25 06:16:23;;;;;;;6.00;4.35;;;1.80;99.90;;;;;;5073284;28;20210;-71
2021/01/25 06:18:49;;;;;;;5.60;3.35;;;1.90;99.90;;;;;;5074009;28;20301;-72
2021/01/25 06:21:21;;;;;;;5.60;3.30;;;1.90;99.90;;;;;;5074177;28;20305;-72
2021/01/25 06:23:51;;;;;;;5.28;3.20;;;2.00;99.90;;;;;;5073972;28;20203;-70
2021/01/25 06:26:17;;;;;;;7.40;4.03;;;2.10;99.90;;;;;;5074887;28;20214;-70
2021/01/25 06:28:48;;;;;;;7.13;3.63;;;2.20;99.90;;;;;;5074964;28;20204;-70
2021/01/25 06:31:17;;;;;;;5.40;3.53;;;2.10;99.90;;;;;;5074845;28;20218;-71
2021/01/25 06:33:48;;;;;;;4.85;2.90;;;2.20;99.90;;;;;;5075014;28;20230;-70
2021/01/25 06:36:17;;;;;;;6.00;3.95;;;2.10;99.90;;;;;;5074714;28;20198;-70
2021/01/25 06:38:44;;;;;;;8.07;3.25;;;2.10;99.90;;;;;;5074963;28;20217;-71
2021/01/25 06:41:14;;;;;;;6.55;3.80;;;2.10;99.90;;;;;;5074832;28;20310;-70
2021/01/25 06:43:41;;;;;;;7.43;3.80;;;2.00;99.90;;;;;;5074989;28;20199;-70
2021/01/25 06:46:08;;;;;;;6.70;4.13;;;2.10;99.90;;;;;;5074723;28;20207;-70
2021/01/25 06:48:34;;;;;;;6.18;3.50;;;2.10;99.90;;;;;;5074816;28;20202;-70
2021/01/25 06:51:02;;;;;;;5.55;3.35;;;2.20;99.90;;;;;;5074335;28;20292;-70
2021/01/25 06:53:30;;;;;;;6.70;3.95;;;2.40;99.90;;;;;;5075059;28;20704;-70
2021/01/25 06:56:01;;;;;;;6.30;3.70;;;2.50;99.90;;;;;;5073593;28;20199;-70
2021/01/25 06:58:30;;;;;;;9.02;4.88;;;2.60;99.90;;;;;;5073413;28;20623;-70
2021/01/25 07:00:56;;;;;;;4.65;3.72;;;2.70;99.90;;;;;;5073284;28;20202;-70
2021/01/25 07:03:23;;;;;;;5.60;2.92;;;2.70;99.90;;;;;;5073392;28;20198;-70
2021/01/25 07:05:51;;;;;;;6.20;3.30;;;2.70;99.90;;;;;;5073653;28;20199;-70
2021/01/25 07:08:22;;;;;;;4.78;3.45;;;2.60;99.90;;;;;;5073357;28;20203;-70
2021/01/25 07:10:57;;;;;;;4.13;3.15;;;2.70;99.90;;;;;;5073514;28;20286;-69
2021/01/25 07:13:25;;;;;;;12.38;3.35;;;2.80;99.90;;;;;;5073293;28;20228;-70
2021/01/25 07:15:53;;;;;;;4.38;3.30;;;2.70;99.90;;;;;;5072998;28;20207;-70
2021/01/25 07:18:20;;;;;;;5.18;2.92;;;2.70;99.90;;;;;;5073220;28;20546;-70
2021/01/25 07:20:50;;;;;;;4.15;3.00;;;2.60;99.90;;;;;;5073163;28;20199;-70
2021/01/25 07:23:20;;;;;;;4.45;3.13;;;2.60;99.90;;;;;;5073276;28;20548;-70
2021/01/25 07:25:52;;;;;;;5.55;3.53;;;2.80;99.90;;;;;;5072931;28;20221;-70
2021/01/25 07:28:19;;;;;;;7.57;3.75;;;2.80;99.90;;;;;;5074596;28;20252;-70
2021/01/25 07:30:45;;;;;;;6.03;3.88;;;2.80;99.90;;;;;;5076873;28;20294;-70
2021/01/25 07:33:12;;;;;;;8.10;4.13;;;2.80;99.90;;;;;;5076902;28;20226;-70
2021/01/25 07:35:39;;;;;;;7.35;3.60;;;2.80;99.90;;;;;;5076646;28;20289;-71
2021/01/25 07:38:05;;;;;;;9.40;3.92;;;2.80;99.90;;;;;;5076738;28;20205;-70
2021/01/25 07:40:32;;;;;;;5.38;3.45;;;2.90;99.90;;;;;;5076747;28;20213;-70
2021/01/25 07:43:02;;;;;;;6.72;3.60;;;2.70;99.90;;;;;;5076389;28;20219;-70
2021/01/25 07:45:28;;;;;;;5.53;3.50;;;2.70;99.90;;;;;;5076738;28;20206;-70
2021/01/25 07:47:55;;;;;;;5.55;4.28;;;2.50;99.90;;;;;;5076588;28;20209;-70
2021/01/25 07:50:22;;;;;;;5.80;3.60;;;2.50;99.90;;;;;;5076589;28;20301;-70
2021/01/25 07:52:57;;;;;;;7.85;5.13;;;2.40;99.90;;;;;;5076447;28;20630;-70
2021/01/25 07:55:23;;;;;;;6.70;4.05;;;2.40;99.90;;;;;;5076431;28;20209;-70
2021/01/25 07:57:49;;;;;;;9.55;4.75;;;2.30;99.90;;;;;;5076285;28;20298;-70
2021/01/25 08:00:20;;;;;;;9.02;4.88;;;2.30;99.90;;;;;;5076909;28;20199;-70
2021/01/25 08:02:54;;;;;;;6.75;4.05;;;2.40;99.90;;;;;;5076115;28;20218;-70
2021/01/25 08:05:20;;;;;;;8.50;4.70;;;2.40;99.90;;;;;;5076188;28;20202;-70
2021/01/25 08:07:48;;;;;;;7.85;4.47;;;2.40;99.90;;;;;;5076043;28;20203;-70
2021/01/25 08:10:17;;;;;;;6.07;4.53;;;2.30;99.90;;;;;;5076257;28;20560;-70
2021/01/25 08:12:45;;;;;;;9.07;4.28;;;2.20;99.90;;;;;;5076030;28;20222;-70
2021/01/25 08:15:17;;;;;;;7.93;4.43;;;2.20;99.90;;;;;;5075961;28;20242;-70
2021/01/25 08:17:51;;;;;;;6.53;4.30;;;2.20;99.90;;;;;;5075935;28;20217;-70
2021/01/25 08:20:21;;;;;;;4.18;3.67;;;2.30;99.90;;;;;;5076064;28;20224;-70
2021/01/25 08:22:58;;;;;;;7.10;4.15;;;2.50;99.90;;;;;;5076040;28;20222;-70
2021/01/25 08:25:27;;;;;;;4.90;3.55;;;2.60;99.90;;;;;;5076029;28;20202;-70
2021/01/25 08:27:57;;;;;;;10.88;4.70;;;2.70;99.90;;;;;;5075817;28;20621;-70
2021/01/25 08:30:30;;;;;;;5.43;4.50;;;2.80;99.90;;;;;;5075802;28;20207;-70
2021/01/25 08:32:56;;;;;;;7.60;4.88;;;2.90;99.90;;;;;;5075310;28;20275;-70
2021/01/25 08:35:32;;;;;;;5.13;3.63;;;3.00;99.90;;;;;;5075588;28;20206;-70
2021/01/25 08:38:25;;;;;;;4.70;3.45;;;3.20;99.90;;;;;;5075691;28;20208;-70
2021/01/25 08:40:52;;;;;;;4.57;3.60;;;3.20;99.90;;;;;;5075492;28;20703;-70
2021/01/25 08:43:22;;;;;;;7.30;4.13;;;3.20;99.90;;;;;;5076045;28;20199;-70
2021/01/25 08:45:50;;;;;;;6.82;4.30;;;3.10;99.90;;;;;;5075458;28;20217;-70
2021/01/25 08:48:25;;;;;;;7.68;4.15;;;3.30;99.90;;;;;;5075482;28;20198;-70
2021/01/25 08:50:53;;;;;;;6.93;4.18;;;3.40;99.90;;;;;;5075292;28;20209;-70
2021/01/25 08:53:30;;;;;;;5.53;3.42;;;3.50;99.90;;;;;;5075399;28;20222;-70
2021/01/25 08:55:57;;;;;;;8.88;5.55;;;3.40;99.90;;;;;;5075062;28;20294;-70
2021/01/25 08:58:26;;;;;;;10.02;4.85;;;3.50;99.90;;;;;;5075429;28;20599;-70
2021/01/25 09:00:54;;;;;;;8.88;5.10;;;3.60;99.90;;;;;;5075344;28;20565;-70
2021/01/25 09:03:20;;;;;;;13.57;6.45;;;3.60;99.90;;;;;;5075406;28;20205;-70
2021/01/25 09:05:47;;;;;;;11.73;5.60;;;3.60;99.90;;;;;;5074985;28;20309;-70
2021/01/25 09:08:13;;;;;;;11.18;6.10;;;3.70;99.90;;;;;;5074997;28;20372;-70
2021/01/25 09:10:39;;;;;;;10.23;5.28;;;3.60;99.90;;;;;;5074998;28;20209;-70
2021/01/25 09:13:05;;;;;;;8.18;5.45;;;3.60;99.90;;;;;;5074971;28;20309;-70
2021/01/25 09:15:32;;;;;;;11.05;5.90;;;3.40;99.90;;;;;;5074631;28;20676;-69
2021/01/25 09:17:59;;;;;;;11.43;7.30;;;3.20;99.90;;;;;;5074987;28;20211;-70
2021/01/25 09:20:26;;;;;;;11.38;6.95;;;3.00;99.90;;;;;;5074760;28;20206;-70
2021/01/25 09:22:53;;;;;;;7.25;5.00;;;3.20;99.90;;;;;;5075302;28;20233;-70
2021/01/25 09:25:21;;;;;;;10.23;6.60;;;3.20;99.90;;;;;;5074824;28;20666;-70
2021/01/25 09:27:48;;;;;;;14.30;6.72;;;3.10;99.90;;;;;;5074674;28;20207;-70
2021/01/25 09:30:17;;;;;;;10.52;6.30;;;3.20;99.90;;;;;;5074462;28;20203;-70
2021/01/25 09:32:44;;;;;;;8.45;5.75;;;3.00;99.90;;;;;;5074190;28;20226;-70
2021/01/25 09:35:14;;;;;;;9.38;6.13;;;3.00;99.90;;;;;;5074516;28;20205;-70
2021/01/25 09:37:40;;;;;;;10.15;5.45;;;3.20;99.90;;;;;;5074167;28;20213;-70
2021/01/25 09:40:08;;;;;;;11.93;7.07;;;3.40;99.90;;;;;;5074452;28;20235;-70
2021/01/25 09:42:34;;;;;;;13.40;7.10;;;3.50;99.90;;;;;;5074344;28;20215;-70
2021/01/25 09:45:01;;;;;;;13.43;7.20;;;3.50;99.90;;;;;;5074406;28;20225;-70
2021/01/25 09:47:27;;;;;;;7.45;6.13;;;3.50;99.90;;;;;;5074163;28;20271;-70
2021/01/25 09:49:53;;;;;;;7.75;6.10;;;3.30;99.90;;;;;;5074050;28;20198;-70
2021/01/25 09:52:21;;;;;;;9.18;5.65;;;3.10;99.90;;;;;;5073676;28;20318;-70
2021/01/25 09:54:47;;;;;;;11.77;6.25;;;3.00;99.90;;;;;;5074233;28;20230;-70
2021/01/25 09:57:13;;;;;;;16.70;8.32;;;2.90;99.90;;;;;;5074940;28;20261;-71
2021/01/25 09:59:40;;;;;;;18.05;8.23;;;3.00;99.90;;;;;;5076203;28;20245;-71
2021/01/25 10:02:06;;;;;;;14.00;6.70;;;2.90;99.90;;;;;;5076400;28;20227;-71
2021/01/25 10:04:33;;;;;;;13.90;6.57;;;2.90;99.90;;;;;;5076587;28;20244;-71
2021/01/25 10:07:05;;;;;;;9.63;5.60;;;2.90;99.90;;;;;;5076440;28;20262;-70
2021/01/25 10:09:32;;;;;;;12.68;6.72;;;2.90;99.90;;;;;;5076404;28;20294;-70
2021/01/25 10:11:59;;;;;;;12.52;6.80;;;2.80;99.90;;;;;;5075736;28;20313;-70
2021/01/25 10:14:25;;;;;;;21.95;6.75;;;2.70;99.90;;;;;;5073801;28;20313;-70
2021/01/25 10:16:51;;;;;;;10.68;7.75;;;2.60;99.90;;;;;;5073471;28;20209;-69
2021/01/25 10:19:18;;;;;;;12.05;7.00;;;2.60;99.90;;;;;;5073904;28;20203;-70
2021/01/25 10:21:45;;;;;;;15.27;6.43;;;2.60;99.90;;;;;;5073859;28;20227;-70
2021/01/25 10:24:11;;;;;;;11.52;7.15;;;2.80;99.90;;;;;;5073785;28;20625;-70
2021/01/25 10:26:38;;;;;;;14.50;7.63;;;2.80;99.90;;;;;;5073321;28;20676;-70
2021/01/25 10:29:04;;;;;;;12.18;7.45;;;2.70;99.90;;;;;;5073664;28;20199;-70
2021/01/25 10:31:31;;;;;;;17.45;8.40;;;2.80;99.90;;;;;;5073647;28;20334;-70
2021/01/25 10:33:57;;;;;;;15.07;7.85;;;2.80;99.90;;;;;;5073597;28;20569;-70
2021/01/25 10:36:23;;;;;;;16.73;6.80;;;2.80;99.90;;;;;;5073871;28;20199;-70
2021/01/25 10:38:50;;;;;;;17.90;9.23;;;2.80;99.90;;;;;;5074376;28;20601;-70
2021/01/25 10:41:17;;;;;;;16.35;8.23;;;2.90;99.90;;;;;;5073608;28;20226;-70
2021/01/25 10:43:44;;;;;;;15.00;7.63;;;2.90;99.90;;;;;;5074076;28;20199;-70
2021/01/25 10:46:12;;;;;;;12.25;7.32;;;2.90;99.90;;;;;;5074223;28;20205;-70
2021/01/25 10:48:38;;;;;;;11.80;7.32;;;2.80;99.90;;;;;;5074599;28;20260;-70
2021/01/25 10:51:04;;;;;;;16.98;8.15;;;2.90;99.90;;;;;;5074227;28;20226;-70
2021/01/25 10:53:31;;;;;;;14.43;8.45;;;3.00;99.90;;;;;;5074470;28;20325;-70
2021/01/25 10:55:57;;;;;;;15.55;7.68;;;3.10;99.90;;;;;;5074346;28;20203;-69
2021/01/25 10:58:23;;;;;;;9.60;7.40;;;3.20;99.90;;;;;;5074228;28;20294;-70
2021/01/25 11:00:51;;;;;;;10.15;5.97;;;3.20;99.90;;;;;;5074176;28;20206;-70
2021/01/25 11:03:19;;;;;;;11.45;6.30;;;3.30;99.90;;;;;;5077575;28;20195;-69
2021/01/25 11:05:45;;;;;;;11.77;7.50;;;3.40;99.90;;;;;;5078775;28;20266;-71
2021/01/25 11:08:11;;;;;;;13.98;7.57;;;3.60;99.90;;;;;;5078255;28;20305;-69
2021/01/25 11:10:38;;;;;;;10.45;6.65;;;3.80;99.90;;;;;;5077479;28;20198;-70
2021/01/25 11:13:04;;;;;;;7.63;4.85;;;3.90;99.90;;;;;;5077220;28;20336;-70
2021/01/25 11:15:31;;;;;;;8.50;5.40;;;3.90;99.90;;;;;;5077248;28;20298;-69
2021/01/25 11:17:59;;;;;;;7.32;4.22;;;4.00;99.90;;;;;;5077406;28;20255;-70
2021/01/25 11:20:26;;;;;;;6.78;3.80;;;4.20;99.90;;;;;;5077283;28;20229;-70
2021/01/25 11:22:53;;;;;;;7.78;2.95;;;4.20;99.90;;;;;;5077246;28;20244;-70
2021/01/25 11:25:19;;;;;;;4.32;2.80;;;4.30;99.90;;;;;;5077163;28;20798;-70
2021/01/25 11:27:45;;;;;;;4.13;2.70;;;4.50;99.90;;;;;;5076725;28;20210;-70
2021/01/25 11:30:13;;;;;;;4.88;3.17;;;4.40;99.90;;;;;;5076676;28;20771;-70
2021/01/25 11:32:39;;;;;;;7.28;3.33;;;4.30;99.90;;;;;;5076828;28;20229;-70
2021/01/25 11:35:08;;;;;;;4.05;3.10;;;4.50;99.90;;;;;;5076732;28;20294;-69
2021/01/25 11:37:34;;;;;;;5.93;3.42;;;4.70;99.90;;;;;;5076454;28;20738;-69
2021/01/25 11:40:01;;;;;;;4.13;2.90;;;4.80;99.90;;;;;;5076690;28;20211;-69
2021/01/25 11:42:27;;;;;;;6.20;2.72;;;4.80;99.90;;;;;;5076964;28;20218;-69
2021/01/25 11:44:54;;;;;;;3.17;2.72;;;4.90;99.90;;;;;;5077241;28;20664;-70
2021/01/25 11:47:20;;;;;;;6.18;4.32;;;5.00;99.90;;;;;;5077069;28;20260;-69
2021/01/25 11:49:46;;;;;;;4.18;2.85;;;4.70;99.90;;;;;;5077514;28;20293;-70
2021/01/25 11:52:13;;;;;;;6.20;3.22;;;4.50;99.90;;;;;;5077040;28;20254;-69
2021/01/25 11:54:40;;;;;;;3.45;2.05;;;4.60;99.90;;;;;;5077439;28;20260;-69
2021/01/25 11:57:07;;;;;;;3.97;2.63;;;4.80;99.90;;;;;;5076938;28;20599;-69
2021/01/25 11:59:33;;;;;;;4.00;2.10;;;4.90;99.90;;;;;;5077298;28;20294;-70
2021/01/25 12:01:59;;;;;;;1.83;1.60;;;5.10;99.90;;;;;;5076845;28;20779;-70
2021/01/25 12:04:26;;;;;;;2.83;1.92;;;5.10;99.90;;;;;;5077263;28;20348;-70
2021/01/25 12:06:53;;;;;;;1.77;1.40;;;5.20;99.90;;;;;;5076812;28;20217;-70
2021/01/25 12:09:21;;;;;;;2.60;1.90;;;5.20;99.90;;;;;;5077015;28;20293;-70
2021/01/25 12:11:48;;;;;;;1.33;1.20;;;5.20;99.90;;;;;;5076928;28;20693;-70
2021/01/25 12:14:14;;;;;;;1.55;1.42;;;5.20;99.90;;;;;;5076174;28;20558;-70
2021/01/25 12:16:41;;;;;;;3.20;2.10;;;5.30;99.90;;;;;;5076554;28;20198;-70
2021/01/25 12:19:07;;;;;;;3.15;2.00;;;5.30;99.90;;;;;;5077050;28;20305;-70
2021/01/25 12:21:33;;;;;;;1.75;1.55;;;5.40;99.90;;;;;;5076566;28;20222;-70
2021/01/25 12:24:02;;;;;;;3.55;1.92;;;5.40;99.90;;;;;;5077049;28;20290;-70
2021/01/25 12:26:30;;;;;;;0.90;0.80;;;5.40;99.90;;;;;;5076575;28;20249;-70
2021/01/25 12:28:56;;;;;;;0.90;0.90;;;5.30;99.90;;;;;;5076731;28;20255;-70
2021/01/25 12:31:24;;;;;;;1.17;1.08;;;5.10;99.90;;;;;;5076570;28;20225;-69
2021/01/25 12:33:50;;;;;;;1.15;0.70;;;5.00;99.90;;;;;;5076617;28;20566;-70
2021/01/25 12:36:17;;;;;;;0.70;0.70;;;5.00;99.90;;;;;;5076515;28;20289;-70
2021/01/25 12:38:43;;;;;;;1.25;0.80;;;5.10;99.90;;;;;;5076569;28;20297;-70
2021/01/25 12:41:09;;;;;;;1.45;1.33;;;5.20;99.90;;;;;;5076451;28;20589;-70
2021/01/25 12:43:37;;;;;;;3.15;1.75;;;5.40;99.90;;;;;;5076706;28;20278;-70
2021/01/25 12:46:04;;;;;;;2.17;1.98;;;5.50;99.90;;;;;;5076452;28;20622;-70
2021/01/25 12:48:30;;;;;;;2.72;1.70;;;5.50;99.90;;;;;;5076421;28;20285;-70
2021/01/25 12:50:56;;;;;;;1.88;1.58;;;5.60;99.90;;;;;;5076297;28;20656;-70
2021/01/25 12:53:23;;;;;;;2.58;1.50;;;5.60;99.90;;;;;;5076678;28;20233;-70
2021/01/25 12:55:49;;;;;;;2.88;1.45;;;5.70;99.90;;;;;;5076533;28;20203;-71
2021/01/25 12:58:15;;;;;;;2.35;1.73;;;5.70;99.90;;;;;;5076431;28;20209;-70